Millenium Air

Millenium Air Since 1998



 METAR AND TAF INFORMATION
METAR FOR GCFV
ADDS - METARS form results

(0456 UTC 18 April 2021)
Data provider http://aviationweather.gov/metar/data/
 
METAR text: GCFV 180430Z AUTO 04014KT 9999 OVC027 19/13 Q1018
Conditions at: GCFV (FUERTEVENTURA AR, ES) observed 0430 UTC 18 April 2021
Temperature: 19.0°C (66°F)
Dewpoint: 13.0°C (55°F) [RH = 68%]
Pressure (altimeter): 30.06 inches Hg (1018.0 mb)
Winds: from the NE (40 degrees) at 16 MPH (14 knots; 7.2 m/s)
Visibility: 6 or more miles (10+ km)
Ceiling: 2700 feet AGL
Clouds: overcast cloud deck at 2700 feet AGL
Weather: no significant weather observed at this time

METAR text: GCFV 180400Z AUTO 03013KT 340V050 9999 OVC026 19/13 Q1018
Conditions at: GCFV (FUERTEVENTURA AR, ES) observed 0400 UTC 18 April 2021
Temperature: 19.0°C (66°F)
Dewpoint: 13.0°C (55°F) [RH = 68%]
Pressure (altimeter): 30.06 inches Hg (1018.0 mb)
Winds: from the NNE (30 degrees) at 15 MPH (13 knots; 6.7 m/s)
Visibility: 6 or more miles (10+ km)
Ceiling: 2600 feet AGL
Clouds: overcast cloud deck at 2600 feet AGL
Weather: no significant weather observed at this time

Forecast for: GCFV (FUERTEVENTURA AR, ES)
Text: TAF GCFV 180200Z 1803/1903 35010KT 9999 SCT025 TX23/1814Z TN18/1806Z
Forecast period: 0300 to 0900 UTC 18 April 2021
Forecast type: FROM: standard forecast or significant change
Winds: from the N (350 degrees) at 12 MPH (10 knots; 5.1 m/s)
Visibility: 6 or more miles (10+ km)
Ceiling: at least 12,000 feet AGL
Clouds: scattered clouds at 2500 feet AGL
Weather: no significant weather forecast for this period
Text: BECMG 1809/1811 05013KT
Forecast period: 0900 to 1900 UTC 18 April 2021
Forecast type: BECOMING: Conditions expected to become as follows by 1100 UTC 18 April 2021
Winds: from the NE (50 degrees) at 15 MPH (13 knots; 6.7 m/s)
Visibility: 6 or more miles (10+ km)
Ceiling: at least 12,000 feet AGL
Clouds: scattered clouds at 2500 feet AGL
Weather: no significant weather forecast for this period
Text: BECMG 1819/1821 35010KT
Forecast period: 1900 UTC 18 April 2021 to 0300 UTC 19 April 2021
Forecast type: BECOMING: Conditions expected to become as follows by 2100 UTC 18 April 2021
Winds: from the N (350 degrees) at 12 MPH (10 knots; 5.1 m/s)
Visibility: 6 or more miles (10+ km)
Ceiling: at least 12,000 feet AGL
Clouds: scattered clouds at 2500 feet AGL
Weather: no significant weather forecast for this period

 AIRPORT MAP

 RUNWAY INFORMATION
Runway 01 Runway length 7874 ft Runway width 148 ft
Runway elevation 37 ft Runway displaced threshold 0 ft Runway heading 2
Runway 19 Runway length 7874 ft Runway width 148 ft
Runway elevation 75 ft Runway displaced threshold 0 ft Runway heading 182

 AIRPORT FREQUENCIES
Type APP Name CANARIAS A Frequency 129.3 MHZ
Type ATIS Name ATIS Frequency 118.65 MHZ
Type GND Name GND Frequency 121.7 MHZ
Type TWR Name TWR Frequency 118.5 MHZ

 AIRPORT NEAR NAVIGATION AIDS
Type VOR-DME Name Fuerteventura Frequency 114100 KHZ